Time;durP1;ratioP1;P1;durP2;ratioP2;P2;SDS_P1;SDS_P2;PMS_P1;PMS_P2;Temp;Humidity;BMP_temperature;BMP_pressure;BME280_temperature;BME280_humidity;BME280_pressure;Samples;Min_cycle;Max_cycle;Signal;HPM_P1;HPM_P2
2023/05/09 00:00:56;;;;;;;6.10;5.50;;;15.40;99.90;;;;;;5094173;28;20421;-60
2023/05/09 00:03:23;;;;;;;6.63;5.82;;;15.40;99.90;;;;;;5096118;28;20425;-60
2023/05/09 00:05:52;;;;;;;7.70;7.00;;;15.40;99.90;;;;;;5103342;28;20438;-60
2023/05/09 00:08:19;;;;;;;9.20;6.70;;;15.50;99.90;;;;;;5113013;28;20432;-61
2023/05/09 00:10:46;;;;;;;8.80;5.97;;;15.50;99.90;;;;;;5114064;28;20420;-60
2023/05/09 00:13:13;;;;;;;10.20;6.78;;;15.50;99.90;;;;;;5104093;28;20435;-60
2023/05/09 00:15:40;;;;;;;7.97;6.45;;;15.50;99.90;;;;;;5110548;28;20527;-60
2023/05/09 00:18:08;;;;;;;8.43;6.60;;;15.50;99.90;;;;;;5114612;28;20428;-60
2023/05/09 00:20:35;;;;;;;6.68;5.07;;;15.50;99.90;;;;;;5114109;28;20526;-59
2023/05/09 00:23:05;;;;;;;6.68;5.85;;;15.60;99.90;;;;;;5094961;28;20787;-59
2023/05/09 00:25:32;;;;;;;6.57;5.90;;;15.60;99.90;;;;;;5093602;28;20776;-60
2023/05/09 00:27:59;;;;;;;7.45;5.75;;;15.60;99.90;;;;;;5093639;28;20426;-59
2023/05/09 00:30:26;;;;;;;8.00;7.20;;;15.60;99.90;;;;;;5094010;28;20857;-60
2023/05/09 00:32:53;;;;;;;8.38;7.00;;;15.60;99.90;;;;;;5102945;28;20439;-59
2023/05/09 00:35:20;;;;;;;8.87;7.80;;;15.50;99.90;;;;;;5116993;28;20427;-60
2023/05/09 00:37:47;;;;;;;8.40;7.17;;;15.50;99.90;;;;;;5118457;28;20662;-60
2023/05/09 00:40:15;;;;;;;9.32;7.55;;;15.50;99.90;;;;;;5116918;28;20435;-60
2023/05/09 00:42:42;;;;;;;10.23;7.70;;;15.50;99.90;;;;;;5118015;28;20423;-60
2023/05/09 00:45:11;;;;;;;8.57;6.80;;;15.40;99.90;;;;;;5115726;28;20786;-59
2023/05/09 00:47:38;;;;;;;10.35;6.78;;;15.50;99.90;;;;;;5105566;28;20438;-61
2023/05/09 00:50:06;;;;;;;11.10;8.80;;;15.60;99.90;;;;;;5118166;28;20434;-60
2023/05/09 00:52:34;;;;;;;8.90;8.00;;;15.50;99.90;;;;;;5118258;28;20432;-59
2023/05/09 00:55:03;;;;;;;10.63;9.45;;;15.50;99.90;;;;;;5116781;28;20732;-59
2023/05/09 00:57:32;;;;;;;11.05;9.05;;;15.40;99.90;;;;;;5116633;28;20439;-60
2023/05/09 00:59:59;;;;;;;9.40;8.30;;;15.30;99.90;;;;;;5117773;28;20424;-60
2023/05/09 01:02:27;;;;;;;9.65;7.82;;;15.30;99.90;;;;;;5117979;28;20455;-60
2023/05/09 01:04:55;;;;;;;10.48;9.00;;;15.30;99.90;;;;;;5118080;28;20442;-60
2023/05/09 01:07:31;;;;;;;11.13;9.00;;;15.30;99.90;;;;;;5117558;28;20508;-60
2023/05/09 01:10:06;;;;;;;10.88;9.15;;;15.20;99.90;;;;;;5117367;28;20781;-60
2023/05/09 01:12:47;;;;;;;10.60;9.30;;;15.20;99.90;;;;;;5117041;28;20735;-58
2023/05/09 01:15:22;;;;;;;10.18;8.45;;;15.20;99.90;;;;;;5117735;28;20412;-60
2023/05/09 01:17:55;;;;;;;11.20;9.02;;;15.10;99.90;;;;;;5117604;28;20828;-60
2023/05/09 01:20:30;;;;;;;11.07;8.80;;;15.00;99.90;;;;;;5117366;28;20419;-60
2023/05/09 01:23:15;;;;;;;12.27;10.10;;;14.90;99.90;;;;;;5117221;28;20533;-59
2023/05/09 01:25:54;;;;;;;11.82;9.43;;;14.90;99.90;;;;;;5118279;28;20801;-60
2023/05/09 01:28:35;;;;;;;12.48;9.70;;;14.80;99.90;;;;;;5117568;28;20603;-60
2023/05/09 01:31:06;;;;;;;11.75;9.93;;;14.80;99.90;;;;;;5117341;28;20477;-59
2023/05/09 01:33:36;;;;;;;12.15;9.10;;;14.80;99.90;;;;;;5117458;28;20412;-60
2023/05/09 01:36:08;;;;;;;11.98;9.50;;;14.80;99.90;;;;;;5117490;28;20420;-60
2023/05/09 01:38:38;;;;;;;11.48;10.20;;;14.80;99.90;;;;;;5117405;28;20428;-60
2023/05/09 01:41:08;;;;;;;12.50;9.82;;;14.80;99.90;;;;;;5117045;28;20420;-60
2023/05/09 01:43:38;;;;;;;12.73;10.27;;;14.90;99.90;;;;;;5116402;28;20880;-59
2023/05/09 01:46:06;;;;;;;11.00;9.10;;;14.90;99.90;;;;;;5117397;28;20725;-60
2023/05/09 01:48:35;;;;;;;10.60;9.02;;;14.90;99.90;;;;;;5117294;28;20416;-61
2023/05/09 01:51:05;;;;;;;12.32;9.80;;;15.00;99.90;;;;;;5117471;28;20417;-60
2023/05/09 01:53:33;;;;;;;11.18;9.40;;;15.10;99.90;;;;;;5117867;28;20594;-61
2023/05/09 01:56:01;;;;;;;12.13;9.45;;;15.10;99.90;;;;;;5117613;28;20473;-60
2023/05/09 01:58:30;;;;;;;11.40;9.32;;;15.10;99.90;;;;;;5117095;28;20416;-61
2023/05/09 02:00:57;;;;;;;12.27;10.30;;;15.10;99.90;;;;;;5117351;28;20843;-61
2023/05/09 02:03:27;;;;;;;12.40;9.55;;;15.00;99.90;;;;;;5116688;28;20828;-60
2023/05/09 02:05:56;;;;;;;12.00;9.70;;;14.90;99.90;;;;;;5116875;28;20828;-62
2023/05/09 02:08:23;;;;;;;12.10;9.50;;;14.80;99.90;;;;;;5115743;28;20428;-59
2023/05/09 02:10:56;;;;;;;10.85;9.27;;;14.70;99.90;;;;;;5116183;28;20782;-60
2023/05/09 02:13:24;;;;;;;11.35;9.68;;;14.70;99.90;;;;;;5116876;28;20522;-60
2023/05/09 02:15:51;;;;;;;10.40;9.30;;;14.70;99.90;;;;;;5117108;28;20416;-61
2023/05/09 02:18:18;;;;;;;11.27;9.05;;;14.70;99.90;;;;;;5116469;28;20427;-60
2023/05/09 02:20:48;;;;;;;11.50;9.55;;;14.80;99.90;;;;;;5116725;28;20420;-60
2023/05/09 02:23:15;;;;;;;10.82;8.68;;;14.80;99.90;;;;;;5116288;28;20420;-60
2023/05/09 02:25:43;;;;;;;12.77;10.40;;;14.80;99.90;;;;;;5116064;28;20863;-60
2023/05/09 02:28:11;;;;;;;12.15;9.25;;;14.80;99.90;;;;;;5115866;28;20975;-61
2023/05/09 02:30:45;;;;;;;11.77;9.15;;;14.90;99.90;;;;;;5115147;28;20839;-60
2023/05/09 02:33:13;;;;;;;12.68;8.95;;;14.90;99.90;;;;;;5115594;28;20558;-60
2023/05/09 02:35:42;;;;;;;10.95;8.93;;;14.90;99.90;;;;;;5116527;28;20465;-61
2023/05/09 02:38:12;;;;;;;11.43;8.35;;;14.80;99.90;;;;;;5115889;28;20516;-60
2023/05/09 02:40:39;;;;;;;12.35;9.95;;;14.70;99.90;;;;;;5114537;28;20432;-60
2023/05/09 02:43:06;;;;;;;11.38;9.85;;;14.60;99.90;;;;;;5113538;28;20712;-60
2023/05/09 02:45:34;;;;;;;10.57;8.85;;;14.60;99.90;;;;;;5113840;28;20428;-67
2023/05/09 02:48:01;;;;;;;11.18;9.93;;;14.60;99.90;;;;;;5112259;28;20459;-60
2023/05/09 02:50:28;;;;;;;11.45;9.60;;;14.60;99.90;;;;;;5114638;28;20489;-60
2023/05/09 02:52:55;;;;;;;12.38;9.27;;;14.70;99.90;;;;;;5115333;28;20431;-61
2023/05/09 02:55:23;;;;;;;12.57;9.50;;;14.80;99.90;;;;;;5115582;28;20420;-59
2023/05/09 02:57:50;;;;;;;12.45;10.45;;;14.80;99.90;;;;;;5116527;28;20490;-59
2023/05/09 03:00:18;;;;;;;13.38;10.05;;;14.80;99.90;;;;;;5115866;28;20412;-59
2023/05/09 03:02:45;;;;;;;11.77;9.57;;;14.80;99.90;;;;;;5116235;28;20532;-60
2023/05/09 03:05:12;;;;;;;12.43;9.50;;;14.70;99.90;;;;;;5114406;28;20428;-60
2023/05/09 03:07:40;;;;;;;13.30;9.73;;;14.70;99.90;;;;;;5114409;28;20439;-60
2023/05/09 03:10:10;;;;;;;12.87;10.57;;;14.70;99.90;;;;;;5109961;28;20460;-60
2023/05/09 03:12:38;;;;;;;13.10;10.07;;;14.60;99.90;;;;;;5105430;28;20515;-60
2023/05/09 03:15:06;;;;;;;13.70;10.95;;;14.60;99.90;;;;;;5113202;28;20861;-61
2023/05/09 03:17:34;;;;;;;13.27;11.20;;;14.50;99.90;;;;;;5107303;28;20435;-59
2023/05/09 03:20:04;;;;;;;13.50;10.23;;;14.40;99.90;;;;;;5114767;28;20466;-59
2023/05/09 03:22:31;;;;;;;12.63;10.82;;;14.40;99.90;;;;;;5114622;28;20424;-60
2023/05/09 03:24:59;;;;;;;13.60;11.48;;;14.40;99.90;;;;;;5112710;28;20434;-60
2023/05/09 03:27:26;;;;;;;12.60;10.30;;;14.40;99.90;;;;;;5115194;28;20421;-60
2023/05/09 03:29:55;;;;;;;13.57;10.70;;;14.40;99.90;;;;;;5115035;28;20424;-61
2023/05/09 03:32:22;;;;;;;12.80;9.75;;;14.40;99.90;;;;;;5112714;28;20729;-60
2023/05/09 03:34:49;;;;;;;12.07;10.05;;;14.40;99.90;;;;;;5106208;28;20447;-59
2023/05/09 03:37:16;;;;;;;15.73;11.20;;;14.40;99.90;;;;;;5093947;28;20418;-59
2023/05/09 03:39:43;;;;;;;12.07;10.00;;;14.40;99.90;;;;;;5094617;28;20528;-60
2023/05/09 03:42:10;;;;;;;13.82;10.85;;;14.30;99.90;;;;;;5095013;28;20477;-60
2023/05/09 03:44:37;;;;;;;14.88;11.52;;;14.40;99.90;;;;;;5094576;28;20425;-61
2023/05/09 03:47:06;;;;;;;13.70;10.18;;;14.40;99.90;;;;;;5094952;28;20422;-60
2023/05/09 03:49:33;;;;;;;12.48;10.52;;;14.40;99.90;;;;;;5108833;28;20616;-60
2023/05/09 03:52:02;;;;;;;12.23;10.57;;;14.40;99.90;;;;;;5114427;28;20881;-60
2023/05/09 03:54:29;;;;;;;13.90;11.00;;;14.40;99.90;;;;;;5114451;28;20430;-59
2023/05/09 03:56:56;;;;;;;13.48;10.52;;;14.40;99.90;;;;;;5113721;28;20458;-59
2023/05/09 03:59:24;;;;;;;13.65;10.02;;;14.30;99.90;;;;;;5113847;28;20440;-59
2023/05/09 04:01:51;;;;;;;13.60;10.63;;;14.30;99.90;;;;;;5114506;28;20720;-56
2023/05/09 04:04:20;;;;;;;14.60;9.93;;;14.30;99.90;;;;;;5115065;28;20424;-59
2023/05/09 04:06:47;;;;;;;12.90;10.00;;;14.30;99.90;;;;;;5113970;28;20424;-61
2023/05/09 04:09:14;;;;;;;13.13;10.48;;;14.40;99.90;;;;;;5111554;28;20428;-60
2023/05/09 04:11:41;;;;;;;10.30;9.20;;;14.50;99.90;;;;;;5110803;28;20413;-61
2023/05/09 04:14:08;;;;;;;12.55;10.10;;;14.50;99.90;;;;;;5111034;28;20432;-61
2023/05/09 04:16:35;;;;;;;11.02;8.57;;;14.50;99.90;;;;;;5111738;28;20416;-60
2023/05/09 04:19:03;;;;;;;11.23;8.80;;;14.50;99.90;;;;;;5111746;28;20424;-61
2023/05/09 04:21:31;;;;;;;10.65;8.50;;;14.60;99.90;;;;;;5112287;28;20424;-61
2023/05/09 04:23:58;;;;;;;11.85;9.90;;;14.50;99.90;;;;;;5112830;28;20419;-61
2023/05/09 04:26:26;;;;;;;12.20;9.75;;;14.40;99.90;;;;;;5113420;28;20412;-61
2023/05/09 04:28:53;;;;;;;12.38;9.90;;;14.40;99.90;;;;;;5113431;28;20439;-60
2023/05/09 04:31:20;;;;;;;12.23;9.27;;;14.30;99.90;;;;;;5112977;28;20717;-60
2023/05/09 04:33:47;;;;;;;12.60;9.88;;;14.30;99.90;;;;;;5112935;28;20867;-60
2023/05/09 04:36:14;;;;;;;10.85;9.23;;;14.30;99.90;;;;;;5112596;28;20423;-61
2023/05/09 04:38:42;;;;;;;12.30;9.35;;;14.30;99.90;;;;;;5109931;28;20424;-60
2023/05/09 04:41:10;;;;;;;12.85;9.15;;;14.40;99.90;;;;;;5110758;28;20472;-62
2023/05/09 04:43:37;;;;;;;11.38;8.90;;;14.30;99.90;;;;;;5111204;28;20420;-61
2023/05/09 04:46:04;;;;;;;11.68;9.27;;;14.20;99.90;;;;;;5112241;28;20724;-61
2023/05/09 04:48:31;;;;;;;12.55;9.90;;;14.30;99.90;;;;;;5112254;28;20501;-60
2023/05/09 04:50:58;;;;;;;12.35;8.43;;;14.30;99.90;;;;;;5112607;28;20417;-61
2023/05/09 04:53:25;;;;;;;11.77;9.55;;;14.30;99.90;;;;;;5110535;28;20835;-60
2023/05/09 04:55:54;;;;;;;12.73;9.10;;;14.20;99.90;;;;;;5113033;28;20496;-60
2023/05/09 04:58:21;;;;;;;9.93;8.82;;;14.20;99.90;;;;;;5110800;28;20851;-60
2023/05/09 05:00:48;;;;;;;12.00;9.20;;;14.20;99.90;;;;;;5111581;28;20436;-60
2023/05/09 05:03:16;;;;;;;10.70;8.85;;;14.20;99.90;;;;;;5113306;28;20439;-60
2023/05/09 05:05:43;;;;;;;13.82;8.70;;;14.20;99.90;;;;;;5113536;28;20416;-60
2023/05/09 05:08:11;;;;;;;11.68;8.73;;;14.30;99.90;;;;;;5113286;28;20424;-60
2023/05/09 05:10:38;;;;;;;10.60;8.85;;;14.30;99.90;;;;;;5112917;28;20440;-60
2023/05/09 05:13:06;;;;;;;12.23;8.63;;;14.40;99.90;;;;;;5113656;28;20568;-61
2023/05/09 05:15:33;;;;;;;10.25;8.40;;;14.50;99.90;;;;;;5112648;28;20416;-60
2023/05/09 05:18:00;;;;;;;9.13;7.80;;;14.50;99.90;;;;;;5112706;28;20734;-60
2023/05/09 05:20:28;;;;;;;8.82;7.22;;;14.60;99.90;;;;;;5115674;28;20854;-62
2023/05/09 05:22:55;;;;;;;12.13;7.82;;;14.70;99.90;;;;;;5116762;28;20469;-63
2023/05/09 05:25:22;;;;;;;11.40;8.63;;;14.70;99.90;;;;;;5114931;28;20824;-61
2023/05/09 05:27:49;;;;;;;9.27;7.63;;;14.70;99.90;;;;;;5112590;28;20516;-60
2023/05/09 05:30:17;;;;;;;9.30;7.60;;;14.90;99.90;;;;;;5113823;28;21021;-61
2023/05/09 05:32:45;;;;;;;9.10;8.20;;;14.90;99.90;;;;;;5113217;28;20424;-60
2023/05/09 05:35:12;;;;;;;9.25;7.45;;;15.00;99.90;;;;;;5111577;28;20423;-61
2023/05/09 05:37:39;;;;;;;9.32;7.75;;;15.00;99.90;;;;;;5114363;28;20727;-62
2023/05/09 05:40:08;;;;;;;13.38;8.70;;;15.00;99.90;;;;;;5113881;28;20424;-60
2023/05/09 05:42:36;;;;;;;10.85;8.90;;;14.90;99.90;;;;;;5114229;28;20511;-63
2023/05/09 05:45:04;;;;;;;9.57;7.50;;;14.90;99.90;;;;;;5114948;28;20427;-60
2023/05/09 05:47:33;;;;;;;11.57;8.40;;;14.90;99.90;;;;;;5113318;28;20686;-60
2023/05/09 05:50:00;;;;;;;12.00;8.90;;;14.90;99.90;;;;;;5111394;28;20572;-60
2023/05/09 05:52:27;;;;;;;10.10;8.00;;;14.90;99.90;;;;;;5112129;28;20726;-61
2023/05/09 05:54:54;;;;;;;10.80;9.02;;;15.00;99.90;;;;;;5113462;28;20432;-62
2023/05/09 05:57:22;;;;;;;11.00;9.30;;;15.00;99.90;;;;;;5111097;28;20473;-60
2023/05/09 05:59:49;;;;;;;12.55;10.20;;;15.00;99.90;;;;;;5109561;28;20756;-59
2023/05/09 06:02:17;;;;;;;12.43;10.13;;;14.90;99.90;;;;;;5109397;28;20867;-59
2023/05/09 06:04:45;;;;;;;13.53;9.50;;;14.90;99.90;;;;;;5108627;28;20417;-59
2023/05/09 06:07:13;;;;;;;13.68;9.80;;;14.90;99.90;;;;;;5110027;28;20412;-60
2023/05/09 06:09:40;;;;;;;12.13;9.55;;;15.00;99.90;;;;;;5113760;28;20443;-58
2023/05/09 06:12:07;;;;;;;11.50;9.63;;;15.10;99.90;;;;;;5114477;28;20508;-58
2023/05/09 06:14:34;;;;;;;11.05;9.77;;;15.20;99.90;;;;;;5114302;28;20436;-58
2023/05/09 06:17:01;;;;;;;13.23;9.82;;;15.20;99.90;;;;;;5112216;28;20866;-59
2023/05/09 06:19:28;;;;;;;12.87;9.30;;;15.20;99.90;;;;;;5113308;28;20424;-59
2023/05/09 06:21:57;;;;;;;14.23;10.20;;;15.30;99.90;;;;;;5112400;28;20664;-60
2023/05/09 06:24:24;;;;;;;12.50;10.05;;;15.40;99.90;;;;;;5113721;28;20774;-59
2023/05/09 06:26:51;;;;;;;12.65;9.93;;;15.50;99.90;;;;;;5114619;28;20416;-59
2023/05/09 06:29:18;;;;;;;11.60;10.40;;;15.50;99.90;;;;;;5113265;28;21063;-60
2023/05/09 06:31:45;;;;;;;12.90;9.77;;;15.60;99.90;;;;;;5111390;28;20417;-59
2023/05/09 06:34:12;;;;;;;11.90;10.70;;;15.50;99.90;;;;;;5111335;28;20432;-59
2023/05/09 06:36:39;;;;;;;12.30;10.20;;;15.50;99.90;;;;;;5111321;28;20416;-60
2023/05/09 06:39:08;;;;;;;13.53;9.93;;;15.50;99.90;;;;;;5111240;28;20431;-60
2023/05/09 06:41:35;;;;;;;13.88;11.35;;;15.50;99.90;;;;;;5111985;28;20421;-59
2023/05/09 06:44:02;;;;;;;11.05;9.55;;;15.40;99.90;;;;;;5111778;28;20727;-60
2023/05/09 06:46:29;;;;;;;12.35;10.15;;;15.30;99.90;;;;;;5110992;28;20715;-60
2023/05/09 06:48:56;;;;;;;14.50;11.48;;;15.30;99.90;;;;;;5110757;28;20443;-59
2023/05/09 06:51:23;;;;;;;12.73;9.90;;;15.30;99.90;;;;;;5105324;28;20541;-60
2023/05/09 06:53:50;;;;;;;14.00;9.30;;;15.40;99.90;;;;;;5102649;28;20477;-58
2023/05/09 06:56:21;;;;;;;12.70;10.02;;;15.40;99.90;;;;;;5111704;28;20700;-58
2023/05/09 06:58:49;;;;;;;12.40;9.57;;;15.40;99.90;;;;;;5109784;28;20428;-60
2023/05/09 07:01:16;;;;;;;12.87;9.50;;;15.40;99.90;;;;;;5110623;28;20416;-59
2023/05/09 07:03:45;;;;;;;12.65;9.25;;;15.50;99.90;;;;;;5108542;28;20998;-60
2023/05/09 07:06:12;;;;;;;13.75;11.25;;;15.50;99.90;;;;;;5109313;28;20524;-60
2023/05/09 07:08:39;;;;;;;14.85;10.52;;;15.50;99.90;;;;;;5112109;28;20829;-61
2023/05/09 07:11:06;;;;;;;16.05;10.73;;;15.60;99.90;;;;;;5112644;28;20823;-61
2023/05/09 07:13:35;;;;;;;12.40;10.00;;;15.70;99.90;;;;;;5112411;28;20436;-61
2023/05/09 07:16:02;;;;;;;13.20;10.60;;;15.80;99.90;;;;;;5099629;28;20469;-61
2023/05/09 07:18:29;;;;;;;13.90;9.75;;;15.90;99.90;;;;;;5089239;28;20430;-61
2023/05/09 07:20:56;;;;;;;12.77;11.02;;;16.20;99.90;;;;;;5109787;28;20514;-61
2023/05/09 07:23:24;;;;;;;10.38;9.23;;;16.40;99.90;;;;;;5108878;28;21002;-62
2023/05/09 07:25:57;;;;;;;15.93;10.82;;;16.50;99.90;;;;;;5110927;28;20420;-62
2023/05/09 07:28:24;;;;;;;15.35;12.10;;;16.70;99.90;;;;;;5102131;28;20456;-61
2023/05/09 07:30:54;;;;;;;11.45;8.75;;;16.80;99.90;;;;;;5110752;28;20452;-60
2023/05/09 07:33:21;;;;;;;12.40;9.50;;;16.90;99.90;;;;;;5103145;28;20431;-60
2023/05/09 07:35:48;;;;;;;10.73;8.87;;;17.10;99.90;;;;;;5102769;28;20434;-60
2023/05/09 07:38:16;;;;;;;11.85;8.90;;;17.20;99.90;;;;;;5102095;28;20737;-60
2023/05/09 07:40:43;;;;;;;9.23;8.05;;;17.20;99.90;;;;;;5095977;27;20480;-59
2023/05/09 07:43:10;;;;;;;10.25;8.35;;;17.20;99.90;;;;;;5102165;28;20438;-58
2023/05/09 07:45:37;;;;;;;11.02;7.93;;;17.20;99.90;;;;;;5096826;28;20426;-60
2023/05/09 07:48:06;;;;;;;11.00;8.13;;;17.30;99.90;;;;;;5092304;28;20868;-59
2023/05/09 07:50:34;;;;;;;10.48;7.55;;;17.30;99.90;;;;;;5094995;28;20435;-59
2023/05/09 07:53:01;;;;;;;8.00;7.20;;;17.40;99.90;;;;;;5102689;28;20755;-60
2023/05/09 07:55:28;;;;;;;8.27;5.83;;;17.40;99.90;;;;;;5106544;28;20478;-60
2023/05/09 07:57:55;;;;;;;5.82;4.57;;;17.40;99.90;;;;;;5107711;28;20430;-60
2023/05/09 08:00:22;;;;;;;6.97;5.13;;;17.40;99.90;;;;;;5100170;28;20456;-61
2023/05/09 08:02:50;;;;;;;6.80;6.10;;;17.50;99.90;;;;;;5093466;28;20447;-60
2023/05/09 08:05:19;;;;;;;7.78;6.70;;;17.60;99.90;;;;;;5093637;28;20412;-60
2023/05/09 08:07:46;;;;;;;6.20;5.07;;;17.70;99.90;;;;;;5106330;28;20436;-60
2023/05/09 08:10:13;;;;;;;6.10;5.03;;;17.90;99.90;;;;;;5095884;28;20964;-59
2023/05/09 08:12:40;;;;;;;5.38;4.03;;;17.90;99.90;;;;;;5108600;28;20420;-59
2023/05/09 08:15:09;;;;;;;4.95;3.35;;;17.90;99.90;;;;;;5110700;28;20420;-60
2023/05/09 08:17:42;;;;;;;5.93;4.50;;;18.00;99.90;;;;;;5095310;28;20605;-60
2023/05/09 08:20:10;;;;;;;2.80;1.60;;;18.20;99.90;;;;;;5106424;28;20436;-59
2023/05/09 08:22:40;;;;;;;4.13;2.75;;;18.30;99.90;;;;;;5091395;28;21066;-60
2023/05/09 08:25:08;;;;;;;3.50;2.63;;;18.30;99.90;;;;;;5090302;28;20896;-61
2023/05/09 08:27:35;;;;;;;3.67;3.05;;;18.40;99.90;;;;;;5089422;28;20421;-60
2023/05/09 08:30:03;;;;;;;3.33;2.33;;;18.50;99.90;;;;;;5090995;28;20418;-60
2023/05/09 08:32:30;;;;;;;2.97;1.90;;;18.60;99.90;;;;;;5103253;28;20849;-60
2023/05/09 08:34:59;;;;;;;3.63;2.22;;;18.60;99.90;;;;;;5109249;28;20657;-59
2023/05/09 08:37:27;;;;;;;3.05;2.30;;;18.60;99.90;;;;;;5111355;28;20995;-59
2023/05/09 08:39:56;;;;;;;3.63;2.58;;;18.60;99.90;;;;;;5102424;28;20533;-60
2023/05/09 08:42:24;;;;;;;3.22;2.63;;;18.50;99.90;;;;;;5103526;28;20435;-59
2023/05/09 08:44:52;;;;;;;3.00;2.10;;;18.70;99.90;;;;;;5106389;28;20427;-59
2023/05/09 08:47:20;;;;;;;2.70;1.90;;;18.90;99.90;;;;;;5109279;28;21027;-59
2023/05/09 08:49:48;;;;;;;2.63;2.00;;;19.00;99.90;;;;;;5110818;28;20808;-60
2023/05/09 08:52:15;;;;;;;3.20;2.50;;;19.20;99.90;;;;;;5108764;28;20505;-60
2023/05/09 08:54:43;;;;;;;4.38;2.70;;;19.30;99.90;;;;;;5113408;28;20432;-58
2023/05/09 08:57:11;;;;;;;4.43;2.92;;;19.30;99.90;;;;;;5112361;28;20432;-58
2023/05/09 08:59:42;;;;;;;6.32;4.75;;;19.30;99.90;;;;;;5111847;28;20442;-60
2023/05/09 09:02:13;;;;;;;5.50;4.13;;;19.20;99.90;;;;;;5115217;28;20427;-59
2023/05/09 09:04:40;;;;;;;5.72;4.68;;;19.30;99.90;;;;;;5114495;28;20774;-58
2023/05/09 09:07:09;;;;;;;6.93;4.18;;;19.40;99.90;;;;;;5113849;28;20455;-58
2023/05/09 09:09:37;;;;;;;4.40;4.00;;;19.70;99.90;;;;;;5115336;28;20866;-59
2023/05/09 09:12:08;;;;;;;5.55;3.28;;;19.80;99.90;;;;;;5115555;28;20427;-59
2023/05/09 09:14:41;;;;;;;4.97;4.32;;;20.00;99.90;;;;;;5114145;28;20731;-60
2023/05/09 09:17:11;;;;;;;3.47;3.17;;;20.20;99.90;;;;;;5114240;28;20812;-59
2023/05/09 09:19:43;;;;;;;3.88;3.25;;;20.20;99.90;;;;;;5114467;28;20463;-60
2023/05/09 09:22:13;;;;;;;3.20;2.88;;;20.30;99.90;;;;;;5114569;28;20415;-59
2023/05/09 09:24:40;;;;;;;3.20;2.60;;;20.50;99.90;;;;;;5109458;28;20432;-60
2023/05/09 09:27:08;;;;;;;3.85;2.33;;;20.40;99.90;;;;;;5112014;28;20440;-59
2023/05/09 09:29:37;;;;;;;2.97;2.60;;;20.10;99.90;;;;;;5112908;28;20428;-60
2023/05/09 09:32:06;;;;;;;3.13;2.60;;;20.10;99.90;;;;;;5110626;28;20481;-60
2023/05/09 09:34:33;;;;;;;4.45;3.22;;;20.20;99.90;;;;;;5111853;28;20432;-59
2023/05/09 09:37:01;;;;;;;4.25;3.88;;;20.20;99.90;;;;;;5112952;28;20431;-59
2023/05/09 09:39:28;;;;;;;3.22;2.92;;;20.30;99.90;;;;;;5112632;28;20440;-59
2023/05/09 09:41:55;;;;;;;3.90;3.45;;;20.20;99.90;;;;;;5112320;28;20417;-59
2023/05/09 09:44:22;;;;;;;4.00;2.88;;;20.30;99.90;;;;;;5108855;28;20427;-64
2023/05/09 09:46:52;;;;;;;3.33;2.72;;;20.30;99.90;;;;;;5110651;28;20778;-61
2023/05/09 09:49:21;;;;;;;3.93;2.30;;;20.40;99.90;;;;;;5108517;28;20480;-60
2023/05/09 09:51:52;;;;;;;3.13;2.05;;;20.30;99.90;;;;;;5108369;28;20428;-59
2023/05/09 09:54:19;;;;;;;2.10;1.60;;;20.20;99.90;;;;;;5107868;28;20656;-60
2023/05/09 09:56:48;;;;;;;2.47;2.08;;;20.30;99.90;;;;;;5107307;28;20732;-61
2023/05/09 09:59:16;;;;;;;2.30;1.98;;;20.20;99.90;;;;;;5109433;28;20427;-60
2023/05/09 10:02:00;;;;;;;2.95;2.28;;;20.50;99.90;;;;;;5109777;28;20416;-61
2023/05/09 10:04:30;;;;;;;3.00;2.70;;;20.90;99.90;;;;;;5107626;28;20433;-61
2023/05/09 10:07:02;;;;;;;3.33;2.50;;;21.40;99.90;;;;;;5109844;28;21371;-60
2023/05/09 10:09:29;;;;;;;3.85;3.00;;;21.50;99.90;;;;;;5111721;28;20874;-61
2023/05/09 10:12:01;;;;;;;3.40;2.80;;;21.40;99.90;;;;;;5111784;28;20424;-60
2023/05/09 10:14:29;;;;;;;3.60;2.20;;;21.30;99.90;;;;;;5109514;28;21041;-59
2023/05/09 10:16:57;;;;;;;4.80;4.20;;;21.50;99.90;;;;;;5111182;28;20851;-61
2023/05/09 10:19:28;;;;;;;4.07;3.45;;;21.60;99.90;;;;;;5110856;28;20432;-60
2023/05/09 10:21:57;;;;;;;4.32;3.53;;;21.50;99.90;;;;;;5109716;28;20846;-59
2023/05/09 10:24:34;;;;;;;3.75;3.40;;;21.70;99.90;;;;;;5112259;28;20446;-60
2023/05/09 10:27:04;;;;;;;3.30;2.73;;;21.60;99.90;;;;;;5112290;28;20420;-59
2023/05/09 10:29:35;;;;;;;2.85;2.28;;;21.30;99.90;;;;;;5113542;28;20893;-61
2023/05/09 10:32:11;;;;;;;3.03;2.40;;;21.30;99.90;;;;;;5113474;28;20465;-60
2023/05/09 10:34:44;;;;;;;2.60;2.13;;;21.40;99.90;;;;;;5113221;28;20859;-61
2023/05/09 10:37:12;;;;;;;3.78;2.90;;;21.60;99.90;;;;;;5114342;28;20473;-60
2023/05/09 10:39:41;;;;;;;3.72;3.13;;;21.60;99.90;;;;;;5114582;28;20444;-60
2023/05/09 10:42:09;;;;;;;2.85;2.55;;;21.90;99.90;;;;;;5103300;28;20513;-60
2023/05/09 10:44:37;;;;;;;4.97;4.00;;;22.20;99.90;;;;;;5111391;28;20534;-64
2023/05/09 10:47:04;;;;;;;4.85;4.00;;;22.30;99.90;;;;;;5099310;28;21026;-64
2023/05/09 10:49:33;;;;;;;3.20;2.33;;;22.10;99.90;;;;;;5112806;28;20423;-64
2023/05/09 10:52:01;;;;;;;5.00;3.87;;;22.30;99.90;;;;;;5112078;28;20448;-61
2023/05/09 10:54:32;;;;;;;5.28;4.50;;;22.50;99.90;;;;;;5111476;28;20501;-66
2023/05/09 10:56:59;;;;;;;4.82;4.05;;;22.50;99.90;;;;;;5112460;28;20421;-63
2023/05/09 10:59:34;;;;;;;5.40;4.07;;;22.40;99.90;;;;;;5112087;28;20508;-62
2023/05/09 11:02:03;;;;;;;4.05;3.17;;;22.50;99.90;;;;;;5110714;28;20510;-63
2023/05/09 11:04:31;;;;;;;3.10;2.58;;;22.70;99.90;;;;;;5109622;28;20428;-62
2023/05/09 11:06:58;;;;;;;2.80;2.10;;;22.80;99.90;;;;;;5110046;28;20448;-63
2023/05/09 11:09:29;;;;;;;3.53;2.50;;;22.80;99.90;;;;;;5109007;28;20424;-63
2023/05/09 11:11:58;;;;;;;2.58;2.30;;;22.70;99.90;;;;;;5109000;28;20408;-63
2023/05/09 11:14:32;;;;;;;3.30;2.23;;;23.10;99.90;;;;;;5110120;28;22415;-63
2023/05/09 11:17:00;;;;;;;3.00;2.70;;;22.80;99.90;;;;;;5112260;28;20508;-63
2023/05/09 11:19:50;;;;;;;2.80;2.25;;;22.70;99.90;;;;;;5106253;28;20438;-59
2023/05/09 11:22:20;;;;;;;3.15;1.70;;;23.00;99.90;;;;;;5108115;28;20454;-62
2023/05/09 11:24:49;;;;;;;2.73;1.83;;;22.80;99.90;;;;;;5110959;28;21006;-60
2023/05/09 11:27:19;;;;;;;3.67;2.20;;;22.80;99.90;;;;;;5109462;28;20439;-60
2023/05/09 11:29:51;;;;;;;2.80;1.60;;;22.60;99.90;;;;;;5097445;28;20432;-60
2023/05/09 11:32:18;;;;;;;1.60;1.40;;;22.90;99.90;;;;;;5112070;28;20763;-60
2023/05/09 11:34:46;;;;;;;2.50;1.10;;;23.30;99.90;;;;;;5111457;28;20463;-60
2023/05/09 11:37:14;;;;;;;1.30;1.00;;;23.40;99.90;;;;;;5110469;28;20434;-60
2023/05/09 11:39:59;;;;;;;1.90;1.10;;;23.50;99.90;;;;;;5109492;28;20416;-61
2023/05/09 11:42:28;;;;;;;0.90;0.70;;;23.60;99.90;;;;;;5112690;28;20856;-61
2023/05/09 11:44:56;;;;;;;1.10;0.73;;;23.40;99.90;;;;;;5110395;28;20831;-60
2023/05/09 11:47:23;;;;;;;1.23;0.90;;;23.40;99.90;;;;;;5109722;28;20587;-61
2023/05/09 11:49:50;;;;;;;1.20;0.80;;;23.40;99.90;;;;;;5099322;28;20760;-60
2023/05/09 11:52:19;;;;;;;1.10;0.80;;;23.80;99.90;;;;;;5109523;28;20691;-62
2023/05/09 11:54:48;;;;;;;1.10;0.80;;;23.60;99.90;;;;;;5099218;28;20451;-60
2023/05/09 11:57:17;;;;;;;1.15;0.70;;;23.60;99.90;;;;;;5100521;28;20537;-60
2023/05/09 11:59:44;;;;;;;1.00;0.80;;;23.60;99.90;;;;;;5095441;28;20721;-60
2023/05/09 12:02:12;;;;;;;0.80;0.60;;;23.70;99.90;;;;;;5109201;28;20791;-61
2023/05/09 12:04:39;;;;;;;0.93;0.70;;;23.50;99.90;;;;;;5109796;28;20652;-62
2023/05/09 12:07:06;;;;;;;1.00;0.80;;;23.60;99.90;;;;;;5108056;28;21015;-62
2023/05/09 12:09:36;;;;;;;1.00;0.70;;;24.00;99.90;;;;;;5108978;28;20419;-60
2023/05/09 12:12:10;;;;;;;0.73;0.50;;;24.50;99.90;;;;;;5111693;28;20479;-61
2023/05/09 12:14:39;;;;;;;0.90;0.60;;;24.10;99.90;;;;;;5111115;28;20510;-60
2023/05/09 12:17:06;;;;;;;1.10;0.70;;;24.20;99.90;;;;;;5108779;28;20416;-60
2023/05/09 12:19:34;;;;;;;0.90;0.70;;;23.50;99.90;;;;;;5095784;28;20430;-62
2023/05/09 12:22:04;;;;;;;0.98;0.60;;;23.30;99.90;;;;;;5090946;28;21034;-63
2023/05/09 12:24:31;;;;;;;0.90;0.70;;;23.70;99.90;;;;;;5111610;28;20432;-62
2023/05/09 12:27:00;;;;;;;0.63;0.50;;;24.00;99.90;;;;;;5104641;28;20516;-63
2023/05/09 12:29:29;;;;;;;0.70;0.50;;;24.00;99.90;;;;;;5107495;28;20740;-62
2023/05/09 12:31:59;;;;;;;0.73;0.52;;;23.60;99.90;;;;;;5110126;28;20450;-60
2023/05/09 12:34:28;;;;;;;0.80;0.57;;;23.50;99.90;;;;;;5101120;28;20440;-61
2023/05/09 12:36:57;;;;;;;0.70;0.50;;;23.40;99.90;;;;;;5109597;28;20530;-61
2023/05/09 12:39:25;;;;;;;0.70;0.50;;;23.20;99.90;;;;;;5099657;28;20438;-62
2023/05/09 12:41:52;;;;;;;0.70;0.50;;;23.20;99.90;;;;;;5102793;28;20424;-61
2023/05/09 12:44:21;;;;;;;0.80;0.50;;;23.10;99.90;;;;;;5102940;28;20432;-61
2023/05/09 12:47:00;;;;;;;0.70;0.50;;;23.00;99.90;;;;;;5110263;28;20408;-61